Terminal Aerodrome Forecast
Issued by NWS

Home | Current Version | Previous Version | Text Only | Print | Product List | Glossary On
Versions: 1 2 3 4 5 6 7 8 9 10 11 12
000
FTUS42 TJSJ 040500 RRA
TAFIST
TAF
TIST 040539Z 0406/0506 07011KT P6SM VCSH SCT025 SCT040 BKN080
      TEMPO 0406/0410 VRB14G24KT 5SM SHRA BKN025 BKN040
     FM041000 08012KT P6SM -RA SCT025 BKN050
     FM041400 09018G26KT P6SM SCT030 SCT080
     FM042300 08012KT P6SM FEW030
      AMD NOT SKED=

USA.gov is the U.S. government's official web portal to all federal, state and local government web resources and services.